Reklama

Seznam meteostanic a jejich METAR

Vyhledat místa podle abecedy:
A B C D E F G H I J K L M N O P Q R S T U V W X Y Z

Filtrovat:

ID stanice:
a/nebo
Název místa (fulltext):
 
Místo (ID)Naposledy načteno 
Milešovka (Milesovka) 15.12.2019 14:00 UTC Zobrazit data
Místo: Milešovka
Teplota: 4 °C (pocitová: -5.6 °C)
Vítr: 10 m/s z(e) 260°
Počasí: zataženo
Dohlednost: 14 km
Zákl. oblačnosti: 7/8 900 m
Vlhkost: 100%
Mošnov (Ostrava/Mo) 15.12.2019 14:00 UTC Zobrazit data
Místo: Mošnov
Teplota: 9 °C (pocitová: 3.4 °C)
Vítr: 5 m/s z(e) 230°
Počasí: skoro zataženo
Dohlednost: 45 km
Zákl. oblačnosti: 4/8 1800 m;6/8 3900 m
Vlhkost: 62%
Macau (VMMC) 15.12.2019 14:00 UTC Zobrazit METAR
VMMC 151400Z 12004KT 9999 FEW020 SCT045 20/18 Q1019 NOSIG
Madeira (LPMA) 15.12.2019 14:00 UTC Zobrazit METAR
LPMA 151400Z VRB08KT 9999 FEW015 20/14 Q1013
Madrid (LETO) 15.12.2019 14:00 UTC Zobrazit METAR
LETO 151400Z 22007KT 9999 BKN035 11/06 Q1014 NOSIG
Majuro Atoll (PKMA) Zatím nenačteno  
Malabo (FGSL) 15.12.2019 14:00 UTC Zobrazit METAR
FGSL 151400Z 28007KT 240V320 9999 FEW013 31/26 Q1009 NOSIG
Malaga (LEMG) 15.12.2019 14:00 UTC Zobrazit METAR
LEMG 151400Z 24007KT 200V280 CAVOK 20/08 Q1014 NOSIG
Male (VRMM) 15.12.2019 14:00 UTC Zobrazit METAR
VRMM 151400Z 11013KT 9999 FEW017 SCT022 BKN250 28/24 Q1010 TEMPO FEW018CB
Malmo (ESMS) 15.12.2019 13:50 UTC Zobrazit METAR
ESMS 151350Z 24020KT CAVOK 05/02 Q0988
Malta (LMML) 15.12.2019 13:45 UTC Zobrazit METAR
LMML 151345Z 26006KT 240V300 9999 FEW025 18/15 Q1021 NOSIG
Managua (MNMG) 15.12.2019 14:00 UTC Zobrazit METAR
MNMG 151400Z 10006KT 9999 FEW022 27/22 Q1012 A2990 NOSIG
Manchester (EGCC) 15.12.2019 13:50 UTC Zobrazit METAR
EGCC 151350Z AUTO 18005KT 110V220 9999 -RA FEW029 05/02 Q0992
Manila (RPLL) 15.12.2019 14:00 UTC Zobrazit METAR
RPLL 151400Z 08005KT 9999 FEW025 28/23 Q1014 NOSIG RMK A2994
Manzini (FDMS) 13.12.2019 08:00 UTC Zobrazit METAR
FDMS 130800Z 12003KT 9999 BKN035 21/16 Q1021 NOSIG
Maputo (FQMA) 15.12.2019 14:00 UTC Zobrazit METAR
FQMA 151400Z 36007KT 9999 SCT030 37/22 Q1003 NOSIG
Maribor (LJMB) 15.12.2019 14:00 UTC Zobrazit METAR
LJMB 151400Z 21004KT 180V320 9999 FEW033 SCT130 BKN180 06/03 Q1011
Marrakech (GMMX) 15.12.2019 14:00 UTC Zobrazit METAR
GMMX 151400Z VRB02KT 8000 NSC 23/05 Q1015 NOSIG
Maseru (FXMM) 15.12.2019 13:00 UTC Zobrazit METAR
FXMM 151300Z 24022KT CAVOK 23/00 Q1020 NOSIG
Mauritius (FIMP) 15.12.2019 05:00 UTC Zobrazit METAR
FIMP 150500Z 07009KT 9999 SCT019 BKN250 30/24 Q1013
Melilla (GEML) 15.12.2019 14:00 UTC Zobrazit METAR
GEML 151400Z 29007KT 250V330 9999 FEW020 18/11 Q1015
Mexico City (MMMX) 15.12.2019 13:45 UTC Zobrazit METAR
MMMX 151345Z 07006KT 7SM SKC 08/M01 A3032 NOSIG RMK HZY
Midway Atoll, Sand Island (PMDY) 15.12.2019 13:56 UTC Zobrazit METAR
PMDY 151356Z AUTO 06011KT 10SM BKN012 OVC020 19/18 A3022 RMK AO2 RAE00 SLP231 P0000 T01940178
Milan (LIMC) 15.12.2019 13:50 UTC Zobrazit METAR
LIMC 151350Z 24003KT 220V300 9999 BKN038 09/04 Q1015 NOSIG
Minsk (UMMM) 11.07.2016 14:00 UTC Zobrazit METAR
UMMM 111400Z ///// //// BKN040 BKN200 28/16 Q1009 NOSIG RMK QFE738
Mitilini (LGMT) 15.12.2019 13:50 UTC Zobrazit METAR
LGMT 151350Z 00000KT 9999 FEW025 18/14 Q1019
Mogadishu (HCMM) 15.12.2019 14:00 UTC Zobrazit METAR
HCMM 151400Z 08014KT 9999 FEW020 29/21 Q1009
Monrovia (GLRB) 15.12.2019 14:00 UTC Zobrazit METAR
GLRB 151400Z /////KT 9999 BKN020 32/25 Q//// NOSIG
Montevideo (SUMU) 15.12.2019 14:00 UTC Zobrazit METAR
SUMU 151400Z 02007KT 9999 BKN017 OVC080 20/18 Q1008 TEMPO RA
Montpellier/ Mediterranee (LFMT) 15.12.2019 14:00 UTC Zobrazit METAR
LFMT 151400Z AUTO 06007KT 9999 OVC029 15/12 Q1012 BECMG BKN010
Moscow (UUEE) Zatím nenačteno  
Mostar (LQMO) 15.12.2019 14:00 UTC Zobrazit METAR
LQMO 151400Z 28003KT 240V300 CAVOK 13/04 Q1018
Mount Pleasant (EGYP) 15.12.2019 13:50 UTC Zobrazit METAR
EGYP 151350Z 28023KT 9999 FEW032 SCT160 16/07 Q0997 NOSIG
Munich (EDDM) 15.12.2019 13:50 UTC Zobrazit METAR
EDDM 151350Z 25014KT CAVOK 13/06 Q1007 NOSIG
Muscat (OOMS) 15.12.2019 13:50 UTC Zobrazit METAR
OOMS 151350Z 07010KT 9999 FEW020 SCT080 26/20 Q1016 NOSIG
Reklama

Počasí na Váš email

Emaily jsou bez reklamy a bez spamu



Odhlásit newsletter

Reklama


Lunární kalendář

  • 19.12.
  • 26.12.
  • 03.01.
  • 10.01.



Reklama


Reklama
Povinné ručení
Reklama



Reklama